sensor_id;sensor_type;location;lat;lon;timestamp;P1;durP1;ratioP1;P2;durP2;ratioP2
20318;SDS011;10317;47.254;11.314;2023-07-20T00:01:10;7.60;;;5.35;;
20318;SDS011;10317;47.254;11.314;2023-07-20T00:03:36;13.35;;;5.63;;
20318;SDS011;10317;47.254;11.314;2023-07-20T00:06:02;6.97;;;5.28;;
20318;SDS011;10317;47.254;11.314;2023-07-20T00:08:29;7.57;;;5.15;;
20318;SDS011;10317;47.254;11.314;2023-07-20T00:10:55;6.15;;;5.18;;
20318;SDS011;10317;47.254;11.314;2023-07-20T00:13:22;5.35;;;4.85;;
20318;SDS011;10317;47.254;11.314;2023-07-20T00:15:47;8.90;;;5.45;;
20318;SDS011;10317;47.254;11.314;2023-07-20T00:18:13;9.25;;;5.38;;
20318;SDS011;10317;47.254;11.314;2023-07-20T00:20:39;5.25;;;4.38;;
20318;SDS011;10317;47.254;11.314;2023-07-20T00:23:05;5.63;;;4.82;;
20318;SDS011;10317;47.254;11.314;2023-07-20T00:25:31;5.38;;;4.78;;
20318;SDS011;10317;47.254;11.314;2023-07-20T00:27:58;7.30;;;5.50;;
20318;SDS011;10317;47.254;11.314;2023-07-20T00:30:24;6.32;;;4.80;;
20318;SDS011;10317;47.254;11.314;2023-07-20T00:32:49;8.70;;;5.28;;
20318;SDS011;10317;47.254;11.314;2023-07-20T00:35:15;8.93;;;5.43;;
20318;SDS011;10317;47.254;11.314;2023-07-20T00:37:41;7.82;;;5.40;;
20318;SDS011;10317;47.254;11.314;2023-07-20T00:40:07;7.35;;;4.78;;
20318;SDS011;10317;47.254;11.314;2023-07-20T00:42:33;9.48;;;4.85;;
20318;SDS011;10317;47.254;11.314;2023-07-20T00:44:59;11.35;;;5.97;;
20318;SDS011;10317;47.254;11.314;2023-07-20T00:47:25;10.18;;;5.40;;
20318;SDS011;10317;47.254;11.314;2023-07-20T00:49:51;7.57;;;5.60;;
20318;SDS011;10317;47.254;11.314;2023-07-20T00:52:18;4.55;;;3.47;;
20318;SDS011;10317;47.254;11.314;2023-07-20T00:54:47;5.97;;;4.63;;
20318;SDS011;10317;47.254;11.314;2023-07-20T00:57:16;7.63;;;5.07;;
20318;SDS011;10317;47.254;11.314;2023-07-20T00:59:43;9.00;;;4.55;;
20318;SDS011;10317;47.254;11.314;2023-07-20T01:02:09;6.18;;;4.93;;
20318;SDS011;10317;47.254;11.314;2023-07-20T01:04:35;5.30;;;3.92;;
20318;SDS011;10317;47.254;11.314;2023-07-20T01:09:36;6.97;;;4.95;;
20318;SDS011;10317;47.254;11.314;2023-07-20T01:12:22;6.43;;;4.43;;
20318;SDS011;10317;47.254;11.314;2023-07-20T01:14:55;7.90;;;4.60;;
20318;SDS011;10317;47.254;11.314;2023-07-20T01:17:20;6.70;;;4.63;;
20318;SDS011;10317;47.254;11.314;2023-07-20T01:19:46;6.93;;;4.00;;
20318;SDS011;10317;47.254;11.314;2023-07-20T01:22:27;7.85;;;4.95;;
20318;SDS011;10317;47.254;11.314;2023-07-20T01:33:20;11.32;;;4.78;;
20318;SDS011;10317;47.254;11.314;2023-07-20T01:35:52;8.20;;;4.70;;
20318;SDS011;10317;47.254;11.314;2023-07-20T01:38:20;7.43;;;4.68;;
20318;SDS011;10317;47.254;11.314;2023-07-20T01:40:47;5.03;;;3.95;;
20318;SDS011;10317;47.254;11.314;2023-07-20T01:43:14;5.70;;;4.60;;
20318;SDS011;10317;47.254;11.314;2023-07-20T01:45:40;7.50;;;4.28;;
20318;SDS011;10317;47.254;11.314;2023-07-20T01:48:06;6.93;;;4.55;;
20318;SDS011;10317;47.254;11.314;2023-07-20T01:50:32;6.18;;;4.45;;
20318;SDS011;10317;47.254;11.314;2023-07-20T01:52:59;10.38;;;4.95;;
20318;SDS011;10317;47.254;11.314;2023-07-20T01:55:25;7.38;;;4.47;;
20318;SDS011;10317;47.254;11.314;2023-07-20T01:57:51;7.13;;;4.85;;
20318;SDS011;10317;47.254;11.314;2023-07-20T02:00:16;6.63;;;4.72;;
20318;SDS011;10317;47.254;11.314;2023-07-20T02:02:46;6.82;;;4.45;;
20318;SDS011;10317;47.254;11.314;2023-07-20T02:05:12;8.20;;;4.78;;
20318;SDS011;10317;47.254;11.314;2023-07-20T02:07:37;6.10;;;5.18;;
20318;SDS011;10317;47.254;11.314;2023-07-20T02:10:03;7.07;;;4.78;;
20318;SDS011;10317;47.254;11.314;2023-07-20T02:15:22;7.75;;;4.65;;
20318;SDS011;10317;47.254;11.314;2023-07-20T02:17:48;8.82;;;4.47;;
20318;SDS011;10317;47.254;11.314;2023-07-20T02:20:13;7.80;;;5.13;;
20318;SDS011;10317;47.254;11.314;2023-07-20T02:22:39;7.88;;;5.28;;
20318;SDS011;10317;47.254;11.314;2023-07-20T02:25:05;7.38;;;5.20;;
20318;SDS011;10317;47.254;11.314;2023-07-20T02:27:35;6.18;;;4.55;;
20318;SDS011;10317;47.254;11.314;2023-07-20T02:30:01;5.00;;;4.13;;
20318;SDS011;10317;47.254;11.314;2023-07-20T02:32:28;7.35;;;5.13;;
20318;SDS011;10317;47.254;11.314;2023-07-20T02:34:53;9.50;;;5.25;;
20318;SDS011;10317;47.254;11.314;2023-07-20T02:37:19;6.75;;;4.70;;
20318;SDS011;10317;47.254;11.314;2023-07-20T02:39:45;8.27;;;5.00;;
20318;SDS011;10317;47.254;11.314;2023-07-20T02:42:10;8.50;;;5.03;;
20318;SDS011;10317;47.254;11.314;2023-07-20T02:44:36;8.02;;;4.97;;
20318;SDS011;10317;47.254;11.314;2023-07-20T02:47:02;10.82;;;5.43;;
20318;SDS011;10317;47.254;11.314;2023-07-20T02:49:27;7.05;;;4.68;;
20318;SDS011;10317;47.254;11.314;2023-07-20T02:51:53;8.13;;;5.13;;
20318;SDS011;10317;47.254;11.314;2023-07-20T02:54:19;9.38;;;5.38;;
20318;SDS011;10317;47.254;11.314;2023-07-20T02:56:46;7.25;;;4.97;;
20318;SDS011;10317;47.254;11.314;2023-07-20T02:59:11;8.27;;;5.72;;
20318;SDS011;10317;47.254;11.314;2023-07-20T03:01:37;13.43;;;5.53;;
20318;SDS011;10317;47.254;11.314;2023-07-20T03:04:03;11.35;;;6.00;;
20318;SDS011;10317;47.254;11.314;2023-07-20T03:06:29;6.63;;;5.05;;
20318;SDS011;10317;47.254;11.314;2023-07-20T03:08:55;8.77;;;5.55;;
20318;SDS011;10317;47.254;11.314;2023-07-20T03:11:21;5.53;;;4.55;;
20318;SDS011;10317;47.254;11.314;2023-07-20T03:13:48;10.43;;;6.13;;
20318;SDS011;10317;47.254;11.314;2023-07-20T03:16:14;7.97;;;5.82;;
20318;SDS011;10317;47.254;11.314;2023-07-20T03:18:42;10.82;;;6.80;;
20318;SDS011;10317;47.254;11.314;2023-07-20T03:21:09;6.93;;;5.28;;
20318;SDS011;10317;47.254;11.314;2023-07-20T03:23:39;10.32;;;5.68;;
20318;SDS011;10317;47.254;11.314;2023-07-20T03:26:05;7.30;;;5.00;;
20318;SDS011;10317;47.254;11.314;2023-07-20T03:28:33;7.78;;;5.22;;
20318;SDS011;10317;47.254;11.314;2023-07-20T03:31:03;8.73;;;5.68;;
20318;SDS011;10317;47.254;11.314;2023-07-20T03:33:29;7.07;;;5.45;;
20318;SDS011;10317;47.254;11.314;2023-07-20T03:35:55;8.15;;;5.53;;
20318;SDS011;10317;47.254;11.314;2023-07-20T03:38:22;11.07;;;5.68;;
20318;SDS011;10317;47.254;11.314;2023-07-20T03:40:52;7.15;;;6.03;;
20318;SDS011;10317;47.254;11.314;2023-07-20T03:43:19;9.43;;;6.10;;
20318;SDS011;10317;47.254;11.314;2023-07-20T03:45:46;9.52;;;6.38;;
20318;SDS011;10317;47.254;11.314;2023-07-20T03:48:13;10.05;;;5.70;;
20318;SDS011;10317;47.254;11.314;2023-07-20T03:50:40;8.15;;;4.93;;
20318;SDS011;10317;47.254;11.314;2023-07-20T03:53:06;7.90;;;5.40;;
20318;SDS011;10317;47.254;11.314;2023-07-20T03:55:32;9.13;;;5.20;;
20318;SDS011;10317;47.254;11.314;2023-07-20T03:57:58;8.85;;;4.95;;
20318;SDS011;10317;47.254;11.314;2023-07-20T04:00:23;7.30;;;5.45;;
20318;SDS011;10317;47.254;11.314;2023-07-20T04:02:49;7.78;;;6.28;;
20318;SDS011;10317;47.254;11.314;2023-07-20T04:05:15;15.35;;;6.07;;
20318;SDS011;10317;47.254;11.314;2023-07-20T04:07:41;7.03;;;5.30;;
20318;SDS011;10317;47.254;11.314;2023-07-20T04:10:07;7.22;;;5.95;;
20318;SDS011;10317;47.254;11.314;2023-07-20T04:12:33;9.02;;;5.60;;
20318;SDS011;10317;47.254;11.314;2023-07-20T04:14:59;8.40;;;4.90;;
20318;SDS011;10317;47.254;11.314;2023-07-20T04:17:25;5.80;;;4.63;;
20318;SDS011;10317;47.254;11.314;2023-07-20T04:19:51;9.07;;;5.80;;
20318;SDS011;10317;47.254;11.314;2023-07-20T04:22:17;13.65;;;7.18;;
20318;SDS011;10317;47.254;11.314;2023-07-20T04:24:42;9.77;;;5.85;;
20318;SDS011;10317;47.254;11.314;2023-07-20T04:27:08;5.85;;;4.80;;
20318;SDS011;10317;47.254;11.314;2023-07-20T04:29:34;12.32;;;6.07;;
20318;SDS011;10317;47.254;11.314;2023-07-20T04:31:59;6.80;;;5.22;;
20318;SDS011;10317;47.254;11.314;2023-07-20T04:34:25;8.70;;;5.88;;
20318;SDS011;10317;47.254;11.314;2023-07-20T04:36:51;8.40;;;6.30;;
20318;SDS011;10317;47.254;11.314;2023-07-20T04:39:16;8.50;;;5.82;;
20318;SDS011;10317;47.254;11.314;2023-07-20T04:41:42;4.80;;;4.30;;
20318;SDS011;10317;47.254;11.314;2023-07-20T04:44:08;8.93;;;5.75;;
20318;SDS011;10317;47.254;11.314;2023-07-20T04:46:34;8.02;;;5.30;;
20318;SDS011;10317;47.254;11.314;2023-07-20T04:48:59;10.40;;;7.28;;
20318;SDS011;10317;47.254;11.314;2023-07-20T04:51:26;5.93;;;5.32;;
20318;SDS011;10317;47.254;11.314;2023-07-20T04:53:52;7.90;;;5.25;;
20318;SDS011;10317;47.254;11.314;2023-07-20T04:56:18;9.35;;;6.05;;
20318;SDS011;10317;47.254;11.314;2023-07-20T04:58:43;9.65;;;6.30;;
20318;SDS011;10317;47.254;11.314;2023-07-20T05:01:10;8.70;;;6.07;;
20318;SDS011;10317;47.254;11.314;2023-07-20T05:03:36;6.22;;;5.20;;
20318;SDS011;10317;47.254;11.314;2023-07-20T05:06:01;7.70;;;5.93;;
20318;SDS011;10317;47.254;11.314;2023-07-20T05:08:27;9.82;;;6.13;;
20318;SDS011;10317;47.254;11.314;2023-07-20T05:10:53;10.90;;;6.47;;
20318;SDS011;10317;47.254;11.314;2023-07-20T05:13:18;5.78;;;4.95;;
20318;SDS011;10317;47.254;11.314;2023-07-20T05:15:44;8.15;;;5.88;;
20318;SDS011;10317;47.254;11.314;2023-07-20T05:18:10;8.27;;;5.30;;
20318;SDS011;10317;47.254;11.314;2023-07-20T05:20:35;11.52;;;6.07;;
20318;SDS011;10317;47.254;11.314;2023-07-20T05:23:02;6.22;;;5.03;;
20318;SDS011;10317;47.254;11.314;2023-07-20T05:25:28;9.55;;;6.35;;
20318;SDS011;10317;47.254;11.314;2023-07-20T05:27:53;8.98;;;6.22;;
20318;SDS011;10317;47.254;11.314;2023-07-20T05:30:20;8.95;;;5.88;;
20318;SDS011;10317;47.254;11.314;2023-07-20T05:32:46;7.43;;;5.72;;
20318;SDS011;10317;47.254;11.314;2023-07-20T05:35:16;9.95;;;5.40;;
20318;SDS011;10317;47.254;11.314;2023-07-20T05:37:42;9.80;;;5.85;;
20318;SDS011;10317;47.254;11.314;2023-07-20T05:40:09;6.38;;;4.90;;
20318;SDS011;10317;47.254;11.314;2023-07-20T05:42:37;7.15;;;5.03;;
20318;SDS011;10317;47.254;11.314;2023-07-20T05:45:05;12.27;;;5.70;;
20318;SDS011;10317;47.254;11.314;2023-07-20T05:47:32;5.07;;;4.30;;
20318;SDS011;10317;47.254;11.314;2023-07-20T05:49:58;8.40;;;5.95;;
20318;SDS011;10317;47.254;11.314;2023-07-20T05:52:24;5.65;;;4.53;;
20318;SDS011;10317;47.254;11.314;2023-07-20T05:54:49;7.72;;;4.80;;
20318;SDS011;10317;47.254;11.314;2023-07-20T05:57:15;10.85;;;4.93;;
20318;SDS011;10317;47.254;11.314;2023-07-20T05:59:41;6.88;;;5.35;;
20318;SDS011;10317;47.254;11.314;2023-07-20T06:02:09;5.60;;;5.03;;
20318;SDS011;10317;47.254;11.314;2023-07-20T06:04:35;9.10;;;5.78;;
20318;SDS011;10317;47.254;11.314;2023-07-20T06:07:01;9.13;;;5.82;;
20318;SDS011;10317;47.254;11.314;2023-07-20T06:09:27;7.72;;;5.70;;
20318;SDS011;10317;47.254;11.314;2023-07-20T06:11:53;6.32;;;5.00;;
20318;SDS011;10317;47.254;11.314;2023-07-20T06:14:18;7.32;;;5.20;;
20318;SDS011;10317;47.254;11.314;2023-07-20T06:16:45;6.60;;;5.32;;
20318;SDS011;10317;47.254;11.314;2023-07-20T06:19:10;12.32;;;5.93;;
20318;SDS011;10317;47.254;11.314;2023-07-20T06:21:37;9.07;;;7.05;;
20318;SDS011;10317;47.254;11.314;2023-07-20T06:24:03;14.48;;;6.03;;
20318;SDS011;10317;47.254;11.314;2023-07-20T06:26:29;15.23;;;6.93;;
20318;SDS011;10317;47.254;11.314;2023-07-20T06:28:55;6.88;;;5.80;;
20318;SDS011;10317;47.254;11.314;2023-07-20T06:31:21;7.78;;;4.85;;
20318;SDS011;10317;47.254;11.314;2023-07-20T06:33:47;7.70;;;5.53;;
20318;SDS011;10317;47.254;11.314;2023-07-20T06:36:12;14.98;;;6.78;;
20318;SDS011;10317;47.254;11.314;2023-07-20T06:38:39;9.07;;;6.25;;
20318;SDS011;10317;47.254;11.314;2023-07-20T06:41:04;9.15;;;5.72;;
20318;SDS011;10317;47.254;11.314;2023-07-20T06:43:30;7.88;;;5.10;;
20318;SDS011;10317;47.254;11.314;2023-07-20T06:45:56;10.02;;;5.40;;
20318;SDS011;10317;47.254;11.314;2023-07-20T06:48:21;10.45;;;5.03;;
20318;SDS011;10317;47.254;11.314;2023-07-20T06:50:47;6.65;;;4.95;;
20318;SDS011;10317;47.254;11.314;2023-07-20T06:53:13;12.20;;;7.07;;
20318;SDS011;10317;47.254;11.314;2023-07-20T06:55:38;6.32;;;4.90;;
20318;SDS011;10317;47.254;11.314;2023-07-20T06:58:06;8.63;;;5.10;;
20318;SDS011;10317;47.254;11.314;2023-07-20T07:00:32;8.40;;;6.10;;
20318;SDS011;10317;47.254;11.314;2023-07-20T07:02:58;11.00;;;5.93;;
20318;SDS011;10317;47.254;11.314;2023-07-20T07:05:24;8.48;;;6.07;;
20318;SDS011;10317;47.254;11.314;2023-07-20T07:07:49;8.68;;;6.45;;
20318;SDS011;10317;47.254;11.314;2023-07-20T07:10:15;10.75;;;7.15;;
20318;SDS011;10317;47.254;11.314;2023-07-20T07:12:41;9.00;;;6.43;;
20318;SDS011;10317;47.254;11.314;2023-07-20T07:15:06;7.72;;;6.03;;
20318;SDS011;10317;47.254;11.314;2023-07-20T07:17:32;13.93;;;7.30;;
20318;SDS011;10317;47.254;11.314;2023-07-20T07:19:58;10.85;;;6.05;;
20318;SDS011;10317;47.254;11.314;2023-07-20T07:22:24;8.02;;;6.05;;
20318;SDS011;10317;47.254;11.314;2023-07-20T07:24:50;7.38;;;5.70;;
20318;SDS011;10317;47.254;11.314;2023-07-20T07:27:16;9.77;;;5.18;;
20318;SDS011;10317;47.254;11.314;2023-07-20T07:29:42;7.05;;;5.70;;
20318;SDS011;10317;47.254;11.314;2023-07-20T07:32:11;7.53;;;6.00;;
20318;SDS011;10317;47.254;11.314;2023-07-20T07:34:37;7.63;;;5.80;;
20318;SDS011;10317;47.254;11.314;2023-07-20T07:37:04;9.13;;;5.57;;
20318;SDS011;10317;47.254;11.314;2023-07-20T07:39:30;8.68;;;5.78;;
20318;SDS011;10317;47.254;11.314;2023-07-20T07:41:56;9.82;;;5.70;;
20318;SDS011;10317;47.254;11.314;2023-07-20T07:44:22;8.07;;;5.45;;
20318;SDS011;10317;47.254;11.314;2023-07-20T07:46:48;8.75;;;5.65;;
20318;SDS011;10317;47.254;11.314;2023-07-20T07:49:14;10.90;;;6.13;;
20318;SDS011;10317;47.254;11.314;2023-07-20T07:51:41;9.75;;;5.18;;
20318;SDS011;10317;47.254;11.314;2023-07-20T07:54:06;6.45;;;4.05;;
20318;SDS011;10317;47.254;11.314;2023-07-20T07:56:32;9.00;;;4.53;;
20318;SDS011;10317;47.254;11.314;2023-07-20T07:58:58;6.10;;;4.43;;
20318;SDS011;10317;47.254;11.314;2023-07-20T08:01:23;5.90;;;4.10;;
20318;SDS011;10317;47.254;11.314;2023-07-20T08:03:49;6.32;;;3.90;;
20318;SDS011;10317;47.254;11.314;2023-07-20T08:06:16;4.88;;;3.60;;
20318;SDS011;10317;47.254;11.314;2023-07-20T08:08:41;6.47;;;4.40;;
20318;SDS011;10317;47.254;11.314;2023-07-20T08:11:07;4.70;;;3.92;;
20318;SDS011;10317;47.254;11.314;2023-07-20T08:13:33;9.82;;;4.43;;
20318;SDS011;10317;47.254;11.314;2023-07-20T08:16:00;5.40;;;4.35;;
20318;SDS011;10317;47.254;11.314;2023-07-20T08:18:27;8.50;;;4.22;;
20318;SDS011;10317;47.254;11.314;2023-07-20T08:20:53;7.57;;;4.60;;
20318;SDS011;10317;47.254;11.314;2023-07-20T08:23:19;6.82;;;4.65;;
20318;SDS011;10317;47.254;11.314;2023-07-20T08:25:45;8.25;;;4.47;;
20318;SDS011;10317;47.254;11.314;2023-07-20T08:28:12;5.53;;;4.00;;
20318;SDS011;10317;47.254;11.314;2023-07-20T08:30:42;9.20;;;4.05;;
20318;SDS011;10317;47.254;11.314;2023-07-20T08:33:12;7.22;;;3.92;;
20318;SDS011;10317;47.254;11.314;2023-07-20T08:35:39;4.00;;;3.55;;
20318;SDS011;10317;47.254;11.314;2023-07-20T08:38:05;5.88;;;4.38;;
20318;SDS011;10317;47.254;11.314;2023-07-20T08:40:33;5.53;;;4.22;;
20318;SDS011;10317;47.254;11.314;2023-07-20T08:42:59;4.82;;;3.78;;
20318;SDS011;10317;47.254;11.314;2023-07-20T08:45:28;7.20;;;4.28;;
20318;SDS011;10317;47.254;11.314;2023-07-20T08:47:55;5.22;;;3.42;;
20318;SDS011;10317;47.254;11.314;2023-07-20T08:50:23;4.65;;;3.90;;
20318;SDS011;10317;47.254;11.314;2023-07-20T08:52:55;4.88;;;3.75;;
20318;SDS011;10317;47.254;11.314;2023-07-20T08:55:23;3.88;;;3.53;;
20318;SDS011;10317;47.254;11.314;2023-07-20T08:57:53;4.90;;;3.30;;
20318;SDS011;10317;47.254;11.314;2023-07-20T09:00:20;4.72;;;3.67;;
20318;SDS011;10317;47.254;11.314;2023-07-20T09:02:48;5.72;;;3.55;;
20318;SDS011;10317;47.254;11.314;2023-07-20T09:05:16;5.03;;;3.45;;
20318;SDS011;10317;47.254;11.314;2023-07-20T09:07:46;6.82;;;3.53;;
20318;SDS011;10317;47.254;11.314;2023-07-20T09:10:11;4.97;;;4.05;;
20318;SDS011;10317;47.254;11.314;2023-07-20T09:12:41;5.18;;;3.47;;
20318;SDS011;10317;47.254;11.314;2023-07-20T09:15:09;5.13;;;3.70;;
20318;SDS011;10317;47.254;11.314;2023-07-20T09:17:35;6.45;;;3.80;;
20318;SDS011;10317;47.254;11.314;2023-07-20T09:20:06;4.32;;;3.33;;
20318;SDS011;10317;47.254;11.314;2023-07-20T09:22:37;7.80;;;3.90;;
20318;SDS011;10317;47.254;11.314;2023-07-20T09:25:10;5.07;;;4.03;;
20318;SDS011;10317;47.254;11.314;2023-07-20T09:27:42;4.90;;;3.47;;
20318;SDS011;10317;47.254;11.314;2023-07-20T09:30:09;6.70;;;3.70;;
20318;SDS011;10317;47.254;11.314;2023-07-20T09:32:45;5.68;;;3.42;;
20318;SDS011;10317;47.254;11.314;2023-07-20T09:35:19;3.90;;;3.50;;
20318;SDS011;10317;47.254;11.314;2023-07-20T09:37:46;4.93;;;3.38;;
20318;SDS011;10317;47.254;11.314;2023-07-20T09:40:17;4.25;;;3.72;;
20318;SDS011;10317;47.254;11.314;2023-07-20T09:42:43;4.00;;;3.60;;
20318;SDS011;10317;47.254;11.314;2023-07-20T09:45:09;4.75;;;2.78;;
20318;SDS011;10317;47.254;11.314;2023-07-20T09:47:36;4.03;;;3.22;;
20318;SDS011;10317;47.254;11.314;2023-07-20T09:50:06;5.63;;;3.88;;
20318;SDS011;10317;47.254;11.314;2023-07-20T09:52:41;6.88;;;3.10;;
20318;SDS011;10317;47.254;11.314;2023-07-20T09:55:09;3.58;;;3.25;;
20318;SDS011;10317;47.254;11.314;2023-07-20T09:57:38;3.63;;;2.97;;
20318;SDS011;10317;47.254;11.314;2023-07-20T10:00:05;5.20;;;3.42;;
20318;SDS011;10317;47.254;11.314;2023-07-20T10:02:36;5.57;;;3.50;;
20318;SDS011;10317;47.254;11.314;2023-07-20T10:05:10;3.65;;;3.28;;
20318;SDS011;10317;47.254;11.314;2023-07-20T10:07:40;3.38;;;2.97;;
20318;SDS011;10317;47.254;11.314;2023-07-20T10:10:11;6.25;;;3.38;;
20318;SDS011;10317;47.254;11.314;2023-07-20T10:12:45;3.65;;;3.35;;
20318;SDS011;10317;47.254;11.314;2023-07-20T10:15:20;4.13;;;3.15;;
20318;SDS011;10317;47.254;11.314;2023-07-20T10:17:53;5.72;;;3.28;;
20318;SDS011;10317;47.254;11.314;2023-07-20T10:20:27;4.03;;;3.50;;
20318;SDS011;10317;47.254;11.314;2023-07-20T10:22:54;5.35;;;3.50;;
20318;SDS011;10317;47.254;11.314;2023-07-20T10:25:22;3.42;;;3.08;;
20318;SDS011;10317;47.254;11.314;2023-07-20T10:27:48;4.93;;;3.38;;
20318;SDS011;10317;47.254;11.314;2023-07-20T10:30:14;3.45;;;2.72;;
20318;SDS011;10317;47.254;11.314;2023-07-20T10:32:41;3.90;;;3.13;;
20318;SDS011;10317;47.254;11.314;2023-07-20T10:35:12;5.43;;;3.67;;
20318;SDS011;10317;47.254;11.314;2023-07-20T10:37:46;7.80;;;3.30;;
20318;SDS011;10317;47.254;11.314;2023-07-20T10:43:16;6.15;;;3.95;;
20318;SDS011;10317;47.254;11.314;2023-07-20T10:45:51;5.57;;;3.38;;
20318;SDS011;10317;47.254;11.314;2023-07-20T10:48:21;6.50;;;3.45;;
20318;SDS011;10317;47.254;11.314;2023-07-20T10:53:44;3.50;;;3.20;;
20318;SDS011;10317;47.254;11.314;2023-07-20T10:56:14;4.40;;;3.50;;
20318;SDS011;10317;47.254;11.314;2023-07-20T10:58:44;3.58;;;3.10;;
20318;SDS011;10317;47.254;11.314;2023-07-20T11:01:13;3.85;;;3.47;;
20318;SDS011;10317;47.254;11.314;2023-07-20T11:03:41;7.65;;;3.60;;
20318;SDS011;10317;47.254;11.314;2023-07-20T11:09:07;3.42;;;3.13;;
20318;SDS011;10317;47.254;11.314;2023-07-20T11:11:42;7.22;;;3.03;;
20318;SDS011;10317;47.254;11.314;2023-07-20T11:16:48;4.00;;;3.63;;
20318;SDS011;10317;47.254;11.314;2023-07-20T11:19:19;4.57;;;3.70;;
20318;SDS011;10317;47.254;11.314;2023-07-20T11:21:54;3.28;;;3.08;;
20318;SDS011;10317;47.254;11.314;2023-07-20T11:24:22;3.25;;;2.70;;
20318;SDS011;10317;47.254;11.314;2023-07-20T11:26:49;5.20;;;3.40;;
20318;SDS011;10317;47.254;11.314;2023-07-20T11:29:16;3.75;;;3.33;;
20318;SDS011;10317;47.254;11.314;2023-07-20T11:31:44;4.20;;;3.72;;
20318;SDS011;10317;47.254;11.314;2023-07-20T11:34:15;4.32;;;3.42;;
20318;SDS011;10317;47.254;11.314;2023-07-20T11:36:46;3.42;;;2.88;;
20318;SDS011;10317;47.254;11.314;2023-07-20T11:39:13;7.20;;;3.47;;
20318;SDS011;10317;47.254;11.314;2023-07-20T11:41:46;3.10;;;2.83;;
20318;SDS011;10317;47.254;11.314;2023-07-20T11:44:26;4.47;;;3.38;;
20318;SDS011;10317;47.254;11.314;2023-07-20T11:47:10;3.90;;;3.25;;
20318;SDS011;10317;47.254;11.314;2023-07-20T11:49:40;3.90;;;3.00;;
20318;SDS011;10317;47.254;11.314;2023-07-20T11:52:10;5.63;;;3.67;;
20318;SDS011;10317;47.254;11.314;2023-07-20T11:54:40;4.22;;;3.60;;
20318;SDS011;10317;47.254;11.314;2023-07-20T11:57:06;6.22;;;3.25;;
20318;SDS011;10317;47.254;11.314;2023-07-20T11:59:32;3.08;;;2.88;;
20318;SDS011;10317;47.254;11.314;2023-07-20T12:02:02;6.82;;;4.30;;
20318;SDS011;10317;47.254;11.314;2023-07-20T12:04:28;3.33;;;3.03;;
20318;SDS011;10317;47.254;11.314;2023-07-20T12:06:54;3.88;;;3.35;;
20318;SDS011;10317;47.254;11.314;2023-07-20T12:09:20;3.50;;;3.15;;
20318;SDS011;10317;47.254;11.314;2023-07-20T12:11:48;5.07;;;3.47;;
20318;SDS011;10317;47.254;11.314;2023-07-20T12:14:15;4.30;;;3.30;;
20318;SDS011;10317;47.254;11.314;2023-07-20T12:16:41;3.42;;;3.08;;
20318;SDS011;10317;47.254;11.314;2023-07-20T12:19:08;3.03;;;2.83;;
20318;SDS011;10317;47.254;11.314;2023-07-20T12:21:36;3.72;;;3.10;;
20318;SDS011;10317;47.254;11.314;2023-07-20T12:24:03;3.15;;;2.92;;
20318;SDS011;10317;47.254;11.314;2023-07-20T12:26:30;3.95;;;2.85;;
20318;SDS011;10317;47.254;11.314;2023-07-20T12:28:56;4.63;;;3.13;;
20318;SDS011;10317;47.254;11.314;2023-07-20T12:31:23;3.60;;;3.28;;
20318;SDS011;10317;47.254;11.314;2023-07-20T12:33:52;4.78;;;3.17;;
20318;SDS011;10317;47.254;11.314;2023-07-20T12:36:22;3.63;;;2.85;;
20318;SDS011;10317;47.254;11.314;2023-07-20T12:38:48;3.55;;;3.22;;
20318;SDS011;10317;47.254;11.314;2023-07-20T12:41:14;4.63;;;3.13;;
20318;SDS011;10317;47.254;11.314;2023-07-20T12:43:49;3.42;;;3.13;;
20318;SDS011;10317;47.254;11.314;2023-07-20T12:46:15;5.70;;;2.97;;
20318;SDS011;10317;47.254;11.314;2023-07-20T12:48:40;5.88;;;3.22;;
20318;SDS011;10317;47.254;11.314;2023-07-20T12:51:10;4.20;;;3.15;;
20318;SDS011;10317;47.254;11.314;2023-07-20T12:53:36;4.97;;;3.33;;
20318;SDS011;10317;47.254;11.314;2023-07-20T12:56:02;3.00;;;2.80;;
20318;SDS011;10317;47.254;11.314;2023-07-20T12:58:28;7.53;;;3.55;;
20318;SDS011;10317;47.254;11.314;2023-07-20T13:00:54;8.07;;;3.35;;
20318;SDS011;10317;47.254;11.314;2023-07-20T13:03:20;4.88;;;3.45;;
20318;SDS011;10317;47.254;11.314;2023-07-20T13:05:46;3.30;;;3.00;;
20318;SDS011;10317;47.254;11.314;2023-07-20T13:08:12;4.82;;;3.25;;
20318;SDS011;10317;47.254;11.314;2023-07-20T13:10:38;5.57;;;3.35;;
20318;SDS011;10317;47.254;11.314;2023-07-20T13:13:04;4.68;;;3.20;;
20318;SDS011;10317;47.254;11.314;2023-07-20T13:15:31;4.95;;;2.65;;
20318;SDS011;10317;47.254;11.314;2023-07-20T13:17:58;3.08;;;2.85;;
20318;SDS011;10317;47.254;11.314;2023-07-20T13:20:24;3.40;;;2.67;;
20318;SDS011;10317;47.254;11.314;2023-07-20T13:22:51;3.05;;;2.78;;
20318;SDS011;10317;47.254;11.314;2023-07-20T13:25:17;5.63;;;2.63;;
20318;SDS011;10317;47.254;11.314;2023-07-20T13:27:43;4.85;;;2.80;;
20318;SDS011;10317;47.254;11.314;2023-07-20T13:30:09;2.60;;;2.40;;
20318;SDS011;10317;47.254;11.314;2023-07-20T13:32:41;4.00;;;3.30;;
20318;SDS011;10317;47.254;11.314;2023-07-20T13:35:10;4.07;;;3.30;;
20318;SDS011;10317;47.254;11.314;2023-07-20T13:37:36;3.97;;;2.53;;
20318;SDS011;10317;47.254;11.314;2023-07-20T13:40:02;5.35;;;3.33;;
20318;SDS011;10317;47.254;11.314;2023-07-20T13:42:31;3.13;;;2.83;;
20318;SDS011;10317;47.254;11.314;2023-07-20T13:44:57;3.17;;;2.92;;
20318;SDS011;10317;47.254;11.314;2023-07-20T13:47:23;3.42;;;3.03;;
20318;SDS011;10317;47.254;11.314;2023-07-20T13:49:49;2.72;;;2.50;;
20318;SDS011;10317;47.254;11.314;2023-07-20T13:52:15;3.85;;;2.70;;
20318;SDS011;10317;47.254;11.314;2023-07-20T13:54:40;3.15;;;2.63;;
20318;SDS011;10317;47.254;11.314;2023-07-20T13:57:06;4.10;;;2.80;;
20318;SDS011;10317;47.254;11.314;2023-07-20T13:59:32;3.53;;;2.78;;
20318;SDS011;10317;47.254;11.314;2023-07-20T14:01:57;3.78;;;3.03;;
20318;SDS011;10317;47.254;11.314;2023-07-20T14:04:23;5.88;;;2.70;;
20318;SDS011;10317;47.254;11.314;2023-07-20T14:06:49;4.75;;;2.85;;
20318;SDS011;10317;47.254;11.314;2023-07-20T14:09:15;2.70;;;2.40;;
20318;SDS011;10317;47.254;11.314;2023-07-20T14:11:41;3.53;;;3.00;;
20318;SDS011;10317;47.254;11.314;2023-07-20T14:14:06;4.43;;;2.88;;
20318;SDS011;10317;47.254;11.314;2023-07-20T14:16:33;4.20;;;2.70;;
20318;SDS011;10317;47.254;11.314;2023-07-20T14:18:59;3.00;;;2.50;;
20318;SDS011;10317;47.254;11.314;2023-07-20T14:21:24;2.95;;;2.65;;
20318;SDS011;10317;47.254;11.314;2023-07-20T14:23:51;3.85;;;2.83;;
20318;SDS011;10317;47.254;11.314;2023-07-20T14:26:20;3.55;;;2.35;;
20318;SDS011;10317;47.254;11.314;2023-07-20T14:28:46;2.65;;;2.45;;
20318;SDS011;10317;47.254;11.314;2023-07-20T14:31:12;3.30;;;2.70;;
20318;SDS011;10317;47.254;11.314;2023-07-20T14:33:38;4.75;;;2.88;;
20318;SDS011;10317;47.254;11.314;2023-07-20T14:36:04;2.72;;;2.42;;
20318;SDS011;10317;47.254;11.314;2023-07-20T14:38:33;3.15;;;2.90;;
20318;SDS011;10317;47.254;11.314;2023-07-20T14:41:00;3.90;;;2.58;;
20318;SDS011;10317;47.254;11.314;2023-07-20T14:43:26;6.43;;;3.40;;
20318;SDS011;10317;47.254;11.314;2023-07-20T14:45:51;2.63;;;2.42;;
20318;SDS011;10317;47.254;11.314;2023-07-20T14:48:17;4.05;;;3.03;;
20318;SDS011;10317;47.254;11.314;2023-07-20T14:50:43;6.43;;;2.72;;
20318;SDS011;10317;47.254;11.314;2023-07-20T14:53:12;6.30;;;2.75;;
20318;SDS011;10317;47.254;11.314;2023-07-20T14:55:39;3.20;;;2.92;;
20318;SDS011;10317;47.254;11.314;2023-07-20T14:58:04;2.83;;;2.53;;